N23JS SBFL-SAEZ
Flight info
| Callsign | N23JS |
|---|---|
| Flight time | 1h 42m |
| Altitude | 47000 |
| Route | UGREV UN857 NELOX UZ53 UMRUD UN741 PAPIX PAPI7A |
| Aircraft | GLF5/M-SBDE2E3FGHIJ3J5M1P2RWXYZ/HB1D1 |
Departure
| Time | 2026-04-20 14:09 |
|---|---|
| Airport | Hercílio Luz International Airport (SBFL) |
Arrival
| Time | 2026-04-20 15:52 |
|---|---|
| Airport | Ezeiza International Airport - Ministro Pistarini (SAEZ) |
| Time | Latitude | Longitude | Altitude | Speed | Heading |
|---|---|---|---|---|---|
| 2026-04-20 13:58 | -27.67170 | -48.54561 | 23 ft | 0 kts | 33° |
| 2026-04-20 14:05 | -27.67169 | -48.54560 | 23 ft | 0 kts | 26° |
| 2026-04-20 14:05 | -27.67163 | -48.54563 | 22 ft | 1 kts | 329° |
| 2026-04-20 14:06 | -27.67153 | -48.54582 | 23 ft | 4 kts | 299° |
| 2026-04-20 14:06 | -27.67122 | -48.54607 | 22 ft | 7 kts | 354° |
| 2026-04-20 14:06 | -27.67065 | -48.54588 | 22 ft | 10 kts | 356° |
| 2026-04-20 14:06 | -27.67012 | -48.54653 | 22 ft | 13 kts | 299° |
| 2026-04-20 14:07 | -27.66963 | -48.54751 | 22 ft | 15 kts | 300° |
| 2026-04-20 14:07 | -27.66902 | -48.54864 | 22 ft | 18 kts | 302° |
| 2026-04-20 14:07 | -27.66835 | -48.54985 | 23 ft | 17 kts | 301° |
| 2026-04-20 14:07 | -27.66779 | -48.55085 | 24 ft | 11 kts | 313° |
| 2026-04-20 14:08 | -27.66718 | -48.55121 | 25 ft | 9 kts | 348° |
| 2026-04-20 14:08 | -27.66662 | -48.55135 | 25 ft | 8 kts | 347° |
| 2026-04-20 14:08 | -27.66608 | -48.55135 | 25 ft | 8 kts | 26° |
| 2026-04-20 14:08 | -27.66589 | -48.55087 | 25 ft | 7 kts | 119° |
| 2026-04-20 14:09 | -27.66669 | -48.54937 | 25 ft | 69 kts | 121° |
| 2026-04-20 14:09 | -27.67136 | -48.54082 | 252 ft | 167 kts | 121° |
| 2026-04-20 14:09 | -27.68000 | -48.53061 | 1342 ft | 201 kts | 140° |
| 2026-04-20 14:09 | -27.69123 | -48.52044 | 2417 ft | 221 kts | 141° |
| 2026-04-20 14:10 | -27.70486 | -48.51202 | 3439 ft | 240 kts | 171° |
| 2026-04-20 14:10 | -27.72177 | -48.51492 | 4419 ft | 261 kts | 197° |
| 2026-04-20 14:10 | -27.73871 | -48.52070 | 6081 ft | 253 kts | 200° |
| 2026-04-20 14:10 | -27.75351 | -48.52781 | 7706 ft | 243 kts | 214° |
| 2026-04-20 14:11 | -27.76762 | -48.54027 | 8335 ft | 277 kts | 221° |
| 2026-04-20 14:11 | -27.78255 | -48.55438 | 9555 ft | 285 kts | 221° |
| 2026-04-20 14:11 | -27.79754 | -48.56840 | 10908 ft | 288 kts | 221° |
| 2026-04-20 14:11 | -27.81409 | -48.58385 | 10925 ft | 335 kts | 220° |
| 2026-04-20 14:12 | -27.83276 | -48.60120 | 11635 ft | 353 kts | 220° |
| 2026-04-20 14:12 | -27.85125 | -48.61836 | 13143 ft | 345 kts | 220° |
| 2026-04-20 14:12 | -27.86990 | -48.63570 | 14109 ft | 353 kts | 221° |
| 2026-04-20 14:12 | -27.88904 | -48.65350 | 15078 ft | 359 kts | 221° |
| 2026-04-20 14:13 | -27.90819 | -48.67131 | 16259 ft | 359 kts | 222° |
| 2026-04-20 14:13 | -27.92737 | -48.68918 | 17226 ft | 365 kts | 223° |
| 2026-04-20 14:13 | -27.94709 | -48.70754 | 18311 ft | 369 kts | 223° |
| 2026-04-20 14:13 | -27.96676 | -48.72587 | 19406 ft | 372 kts | 223° |
| 2026-04-20 14:14 | -27.98698 | -48.74474 | 20467 ft | 377 kts | 224° |
| 2026-04-20 14:14 | -28.00713 | -48.76354 | 21560 ft | 382 kts | 224° |
| 2026-04-20 14:14 | -28.02777 | -48.78281 | 22646 ft | 387 kts | 225° |
| 2026-04-20 14:14 | -28.04841 | -48.80209 | 23687 ft | 392 kts | 225° |
| 2026-04-20 14:15 | -28.06982 | -48.82210 | 24700 ft | 397 kts | 226° |
| 2026-04-20 14:15 | -28.09128 | -48.84216 | 25627 ft | 403 kts | 226° |
| 2026-04-20 14:15 | -28.11288 | -48.86237 | 26519 ft | 408 kts | 227° |
| 2026-04-20 14:15 | -28.13474 | -48.88284 | 27347 ft | 414 kts | 227° |
| 2026-04-20 14:16 | -28.15710 | -48.90379 | 28137 ft | 420 kts | 227° |
| 2026-04-20 14:16 | -28.17966 | -48.92492 | 28936 ft | 424 kts | 227° |
| 2026-04-20 14:16 | -28.20236 | -48.94620 | 29677 ft | 429 kts | 228° |
| 2026-04-20 14:16 | -28.22517 | -48.96795 | 30315 ft | 431 kts | 231° |
| 2026-04-20 14:17 | -28.24532 | -48.99326 | 30893 ft | 431 kts | 237° |
| 2026-04-20 14:17 | -28.26498 | -49.01844 | 31848 ft | 430 kts | 237° |
| 2026-04-20 14:17 | -28.28481 | -49.04332 | 32891 ft | 425 kts | 237° |
| 2026-04-20 14:17 | -28.30455 | -49.06783 | 33880 ft | 421 kts | 237° |
| 2026-04-20 14:18 | -28.32423 | -49.09224 | 34897 ft | 415 kts | 238° |
| 2026-04-20 14:18 | -28.34329 | -49.11592 | 35784 ft | 412 kts | 238° |
| 2026-04-20 14:18 | -28.36267 | -49.14000 | 36601 ft | 410 kts | 238° |
| 2026-04-20 14:18 | -28.38184 | -49.16381 | 37360 ft | 408 kts | 238° |
| 2026-04-20 14:19 | -28.40098 | -49.18761 | 38036 ft | 407 kts | 238° |
| 2026-04-20 14:19 | -28.42001 | -49.21128 | 38683 ft | 407 kts | 237° |
| 2026-04-20 14:19 | -28.43899 | -49.23489 | 39292 ft | 407 kts | 237° |
| 2026-04-20 14:19 | -28.45812 | -49.25872 | 39859 ft | 407 kts | 238° |
| 2026-04-20 14:20 | -28.47739 | -49.28272 | 40388 ft | 407 kts | 238° |
| 2026-04-20 14:20 | -28.49671 | -49.30680 | 40927 ft | 407 kts | 238° |
| 2026-04-20 14:20 | -28.51562 | -49.33039 | 41423 ft | 407 kts | 238° |
| 2026-04-20 14:20 | -28.53470 | -49.35420 | 41898 ft | 407 kts | 238° |
| 2026-04-20 14:21 | -28.55389 | -49.37817 | 42347 ft | 407 kts | 238° |
| 2026-04-20 14:21 | -28.57277 | -49.40177 | 42784 ft | 406 kts | 238° |
| 2026-04-20 14:21 | -28.59186 | -49.42563 | 43206 ft | 406 kts | 238° |
| 2026-04-20 14:21 | -28.61078 | -49.44930 | 43590 ft | 407 kts | 238° |
| 2026-04-20 14:22 | -28.62990 | -49.47325 | 43964 ft | 407 kts | 238° |
| 2026-04-20 14:22 | -28.64871 | -49.49680 | 44340 ft | 406 kts | 238° |
| 2026-04-20 14:22 | -28.66786 | -49.52079 | 44678 ft | 406 kts | 238° |
| 2026-04-20 14:22 | -28.68688 | -49.54465 | 45018 ft | 406 kts | 238° |
| 2026-04-20 14:23 | -28.70590 | -49.56851 | 45341 ft | 406 kts | 238° |
| 2026-04-20 14:23 | -28.72364 | -49.59078 | 45633 ft | 406 kts | 238° |
| 2026-04-20 14:23 | -28.74150 | -49.61321 | 45891 ft | 406 kts | 238° |
| 2026-04-20 14:23 | -28.76061 | -49.63723 | 46175 ft | 406 kts | 238° |
| 2026-04-20 14:24 | -28.77844 | -49.65965 | 46459 ft | 406 kts | 238° |
| 2026-04-20 14:24 | -28.79733 | -49.68341 | 46777 ft | 405 kts | 238° |
| 2026-04-20 14:24 | -28.81611 | -49.70705 | 47042 ft | 405 kts | 238° |
| 2026-04-20 14:24 | -28.83464 | -49.73043 | 47099 ft | 411 kts | 238° |
| 2026-04-20 14:25 | -28.87363 | -49.77961 | 47098 ft | 424 kts | 238° |
| 2026-04-20 14:25 | -28.91426 | -49.82993 | 47103 ft | 438 kts | 236° |
| 2026-04-20 14:26 | -28.95644 | -49.88030 | 47084 ft | 450 kts | 236° |
| 2026-04-20 14:26 | -29.00005 | -49.93237 | 47052 ft | 454 kts | 236° |
| 2026-04-20 14:27 | -29.04182 | -49.98234 | 47052 ft | 456 kts | 236° |
| 2026-04-20 14:27 | -29.08662 | -50.03601 | 47053 ft | 459 kts | 237° |
| 2026-04-20 14:28 | -29.13072 | -50.08893 | 47044 ft | 461 kts | 237° |
| 2026-04-20 14:28 | -29.17524 | -50.14240 | 47040 ft | 462 kts | 237° |
| 2026-04-20 14:29 | -29.21971 | -50.19590 | 47042 ft | 463 kts | 237° |
| 2026-04-20 14:29 | -29.26422 | -50.24950 | 47038 ft | 463 kts | 237° |
| 2026-04-20 14:30 | -29.30831 | -50.30267 | 47038 ft | 464 kts | 237° |
| 2026-04-20 14:30 | -29.35293 | -50.35656 | 47036 ft | 463 kts | 237° |
| 2026-04-20 14:31 | -29.39694 | -50.40979 | 47042 ft | 463 kts | 237° |
| 2026-04-20 14:31 | -29.44157 | -50.46384 | 47039 ft | 463 kts | 237° |
| 2026-04-20 14:32 | -29.48585 | -50.51752 | 47038 ft | 463 kts | 237° |
| 2026-04-20 14:32 | -29.53023 | -50.57173 | 47034 ft | 462 kts | 238° |
| 2026-04-20 14:33 | -29.57204 | -50.62457 | 47034 ft | 461 kts | 238° |
| 2026-04-20 14:33 | -29.61596 | -50.68023 | 47060 ft | 462 kts | 238° |
| 2026-04-20 14:34 | -29.65820 | -50.73383 | 47054 ft | 461 kts | 238° |
| 2026-04-20 14:34 | -29.70172 | -50.78915 | 47050 ft | 461 kts | 238° |
| 2026-04-20 14:35 | -29.74467 | -50.84379 | 47051 ft | 462 kts | 238° |
| 2026-04-20 14:35 | -29.78787 | -50.89885 | 47051 ft | 461 kts | 238° |
| 2026-04-20 14:36 | -29.83087 | -50.95374 | 47054 ft | 462 kts | 238° |
| 2026-04-20 14:36 | -29.87378 | -51.00857 | 47053 ft | 463 kts | 238° |
| 2026-04-20 14:37 | -29.91714 | -51.06406 | 47052 ft | 463 kts | 237° |
| 2026-04-20 14:37 | -29.93868 | -51.09163 | 47250 ft | 458 kts | 237° |
| 2026-04-20 14:37 | -29.95911 | -51.11762 | 48995 ft | 420 kts | 238° |
| 2026-04-20 14:38 | -29.97816 | -51.14208 | 49843 ft | 405 kts | 239° |
| 2026-04-20 14:38 | -29.99563 | -51.16757 | 49695 ft | 400 kts | 248° |
| 2026-04-20 14:38 | -30.02154 | -51.22425 | 49770 ft | 400 kts | 252° |
| 2026-04-20 14:39 | -30.03418 | -51.25330 | 49886 ft | 400 kts | 252° |
| 2026-04-20 14:39 | -30.04637 | -51.28138 | 50111 ft | 398 kts | 252° |
| 2026-04-20 14:39 | -30.05894 | -51.31045 | 50229 ft | 399 kts | 252° |
| 2026-04-20 14:39 | -30.07147 | -51.33944 | 50313 ft | 400 kts | 252° |
| 2026-04-20 14:40 | -30.08406 | -51.36858 | 50501 ft | 399 kts | 252° |
| 2026-04-20 14:40 | -30.09642 | -51.39720 | 50679 ft | 398 kts | 252° |
| 2026-04-20 14:40 | -30.12126 | -51.45484 | 50822 ft | 400 kts | 252° |
| 2026-04-20 14:41 | -30.13365 | -51.48362 | 50929 ft | 400 kts | 252° |
| 2026-04-20 14:41 | -30.14597 | -51.51225 | 51007 ft | 400 kts | 252° |
| 2026-04-20 14:41 | -30.17085 | -51.57015 | 51038 ft | 404 kts | 252° |
| 2026-04-20 14:42 | -30.19608 | -51.62894 | 51039 ft | 409 kts | 252° |
| 2026-04-20 14:42 | -30.22174 | -51.68885 | 51065 ft | 413 kts | 252° |
| 2026-04-20 14:43 | -30.24736 | -51.74873 | 51060 ft | 420 kts | 252° |
| 2026-04-20 14:43 | -30.27348 | -51.80989 | 51067 ft | 425 kts | 252° |
| 2026-04-20 14:44 | -30.29996 | -51.87199 | 51059 ft | 431 kts | 252° |
| 2026-04-20 14:44 | -30.32652 | -51.93437 | 51057 ft | 436 kts | 252° |
| 2026-04-20 14:45 | -30.35339 | -51.99757 | 51047 ft | 438 kts | 252° |
| 2026-04-20 14:45 | -30.38017 | -52.06070 | 51046 ft | 438 kts | 252° |
| 2026-04-20 14:46 | -30.40711 | -52.12429 | 51049 ft | 438 kts | 252° |
| 2026-04-20 14:46 | -30.43394 | -52.18774 | 51046 ft | 437 kts | 252° |
| 2026-04-20 14:47 | -30.46074 | -52.25118 | 51056 ft | 437 kts | 252° |
| 2026-04-20 14:48 | -30.50080 | -52.34619 | 51077 ft | 438 kts | 252° |
| 2026-04-20 14:48 | -30.52788 | -52.41048 | 51084 ft | 438 kts | 252° |
| 2026-04-20 14:49 | -30.55467 | -52.47417 | 51089 ft | 437 kts | 252° |
| 2026-04-20 14:49 | -30.58175 | -52.53866 | 51092 ft | 438 kts | 252° |
| 2026-04-20 14:50 | -30.60834 | -52.60208 | 51084 ft | 438 kts | 252° |
| 2026-04-20 14:50 | -30.63505 | -52.66593 | 51090 ft | 438 kts | 252° |
| 2026-04-20 14:51 | -30.66174 | -52.72980 | 51093 ft | 438 kts | 252° |
| 2026-04-20 14:51 | -30.68844 | -52.79383 | 51094 ft | 438 kts | 252° |
| 2026-04-20 14:52 | -30.71549 | -52.85883 | 51098 ft | 439 kts | 252° |
| 2026-04-20 14:52 | -30.74228 | -52.92327 | 51081 ft | 438 kts | 252° |
| 2026-04-20 14:53 | -30.76898 | -52.98764 | 51075 ft | 438 kts | 252° |
| 2026-04-20 14:53 | -30.79577 | -53.05234 | 51075 ft | 439 kts | 251° |
| 2026-04-20 14:54 | -30.82244 | -53.11682 | 51072 ft | 438 kts | 251° |
| 2026-04-20 14:54 | -30.84885 | -53.18082 | 51066 ft | 438 kts | 251° |
| 2026-04-20 14:55 | -30.87528 | -53.24499 | 51057 ft | 438 kts | 251° |
| 2026-04-20 14:55 | -30.90165 | -53.30894 | 51052 ft | 437 kts | 251° |
| 2026-04-20 14:56 | -30.92686 | -53.37017 | 51054 ft | 435 kts | 251° |
| 2026-04-20 14:56 | -30.95300 | -53.43376 | 51053 ft | 433 kts | 251° |
| 2026-04-20 14:57 | -30.97864 | -53.49622 | 51047 ft | 431 kts | 251° |
| 2026-04-20 14:57 | -31.00456 | -53.55949 | 51039 ft | 429 kts | 251° |
| 2026-04-20 14:58 | -31.03027 | -53.62237 | 51043 ft | 426 kts | 251° |
| 2026-04-20 14:58 | -31.05438 | -53.68139 | 51061 ft | 423 kts | 251° |
| 2026-04-20 14:59 | -31.07982 | -53.74379 | 51056 ft | 422 kts | 251° |
| 2026-04-20 14:59 | -31.10052 | -53.79464 | 51053 ft | 421 kts | 251° |
| 2026-04-20 15:00 | -31.12461 | -53.85394 | 51049 ft | 421 kts | 251° |
| 2026-04-20 15:00 | -31.14943 | -53.91512 | 51048 ft | 421 kts | 251° |
| 2026-04-20 15:01 | -31.17440 | -53.97676 | 51046 ft | 422 kts | 251° |
| 2026-04-20 15:01 | -31.19942 | -54.03865 | 51045 ft | 421 kts | 252° |
| 2026-04-20 15:02 | -31.22429 | -54.10026 | 51042 ft | 421 kts | 251° |
| 2026-04-20 15:02 | -31.24910 | -54.16182 | 51041 ft | 421 kts | 251° |
| 2026-04-20 15:03 | -31.27387 | -54.22340 | 51042 ft | 422 kts | 252° |
| 2026-04-20 15:03 | -31.29869 | -54.28521 | 51041 ft | 422 kts | 251° |
| 2026-04-20 15:04 | -31.32383 | -54.34793 | 51040 ft | 422 kts | 252° |
| 2026-04-20 15:04 | -31.34850 | -54.40955 | 51037 ft | 422 kts | 252° |
| 2026-04-20 15:05 | -31.37329 | -54.47162 | 51035 ft | 422 kts | 252° |
| 2026-04-20 15:05 | -31.39816 | -54.53396 | 51036 ft | 422 kts | 252° |
| 2026-04-20 15:06 | -31.42292 | -54.59616 | 51033 ft | 422 kts | 252° |
| 2026-04-20 15:06 | -31.45268 | -54.65329 | 51061 ft | 439 kts | 237° |
| 2026-04-20 15:07 | -31.49736 | -54.70392 | 51057 ft | 447 kts | 232° |
| 2026-04-20 15:07 | -31.54278 | -54.75288 | 51052 ft | 447 kts | 232° |
| 2026-04-20 15:08 | -31.58864 | -54.80233 | 51050 ft | 448 kts | 232° |
| 2026-04-20 15:08 | -31.63423 | -54.85154 | 51050 ft | 447 kts | 232° |
| 2026-04-20 15:09 | -31.67838 | -54.89927 | 51048 ft | 448 kts | 232° |
| 2026-04-20 15:09 | -31.72444 | -54.94913 | 51048 ft | 448 kts | 232° |
| 2026-04-20 15:10 | -31.77013 | -54.99866 | 51047 ft | 447 kts | 232° |
| 2026-04-20 15:10 | -31.81552 | -55.04794 | 51048 ft | 448 kts | 232° |
| 2026-04-20 15:11 | -31.86164 | -55.09807 | 51049 ft | 449 kts | 232° |
| 2026-04-20 15:11 | -31.90621 | -55.14660 | 51047 ft | 449 kts | 232° |
| 2026-04-20 15:12 | -31.95192 | -55.19643 | 51046 ft | 449 kts | 232° |
| 2026-04-20 15:12 | -31.99651 | -55.24511 | 51045 ft | 449 kts | 232° |
| 2026-04-20 15:13 | -32.04264 | -55.29554 | 51045 ft | 450 kts | 232° |
| 2026-04-20 15:13 | -32.08848 | -55.34572 | 51018 ft | 448 kts | 232° |
| 2026-04-20 15:14 | -32.13369 | -55.39529 | 51009 ft | 447 kts | 232° |
| 2026-04-20 15:14 | -32.17918 | -55.44524 | 51009 ft | 447 kts | 232° |
| 2026-04-20 15:15 | -32.22449 | -55.49506 | 51011 ft | 447 kts | 232° |
| 2026-04-20 15:15 | -32.27022 | -55.54541 | 51020 ft | 447 kts | 232° |
| 2026-04-20 15:16 | -32.31567 | -55.59552 | 51035 ft | 448 kts | 232° |
| 2026-04-20 15:16 | -32.36083 | -55.64539 | 51051 ft | 448 kts | 232° |
| 2026-04-20 15:17 | -32.40635 | -55.69573 | 51075 ft | 447 kts | 233° |
| 2026-04-20 15:17 | -32.45198 | -55.74627 | 51079 ft | 445 kts | 233° |
| 2026-04-20 15:18 | -32.49656 | -55.79568 | 51056 ft | 434 kts | 233° |
| 2026-04-20 15:18 | -32.54043 | -55.84443 | 51051 ft | 435 kts | 233° |
| 2026-04-20 15:19 | -32.58469 | -55.89368 | 50855 ft | 439 kts | 233° |
| 2026-04-20 15:19 | -32.60688 | -55.91836 | 50414 ft | 439 kts | 233° |
| 2026-04-20 15:19 | -32.62896 | -55.94295 | 49944 ft | 436 kts | 233° |
| 2026-04-20 15:19 | -32.65087 | -55.96738 | 49469 ft | 435 kts | 233° |
| 2026-04-20 15:20 | -32.67302 | -55.99210 | 48989 ft | 434 kts | 233° |
| 2026-04-20 15:20 | -32.69500 | -56.01665 | 48515 ft | 434 kts | 233° |
| 2026-04-20 15:20 | -32.71712 | -56.04137 | 48040 ft | 435 kts | 233° |
| 2026-04-20 15:20 | -32.73907 | -56.06591 | 47558 ft | 435 kts | 233° |
| 2026-04-20 15:21 | -32.76099 | -56.09043 | 47076 ft | 435 kts | 233° |
| 2026-04-20 15:21 | -32.78308 | -56.11517 | 46590 ft | 435 kts | 233° |
| 2026-04-20 15:21 | -32.80489 | -56.13960 | 46115 ft | 435 kts | 233° |
| 2026-04-20 15:21 | -32.82685 | -56.16423 | 45635 ft | 435 kts | 233° |
| 2026-04-20 15:22 | -32.84882 | -56.18889 | 45155 ft | 435 kts | 233° |
| 2026-04-20 15:22 | -32.87075 | -56.21351 | 44674 ft | 435 kts | 233° |
| 2026-04-20 15:22 | -32.89288 | -56.23837 | 44188 ft | 435 kts | 233° |
| 2026-04-20 15:22 | -32.91470 | -56.26292 | 43710 ft | 435 kts | 233° |
| 2026-04-20 15:23 | -32.93654 | -56.28750 | 43230 ft | 435 kts | 233° |
| 2026-04-20 15:23 | -32.95861 | -56.31235 | 42746 ft | 435 kts | 233° |
| 2026-04-20 15:23 | -32.98071 | -56.33728 | 42262 ft | 435 kts | 233° |
| 2026-04-20 15:23 | -33.00258 | -56.36205 | 41781 ft | 436 kts | 233° |
| 2026-04-20 15:24 | -33.02434 | -56.38671 | 41300 ft | 436 kts | 232° |
| 2026-04-20 15:24 | -33.04611 | -56.41141 | 40823 ft | 436 kts | 232° |
| 2026-04-20 15:24 | -33.06820 | -56.43648 | 40337 ft | 437 kts | 232° |
| 2026-04-20 15:24 | -33.09040 | -56.46170 | 39845 ft | 437 kts | 232° |
| 2026-04-20 15:25 | -33.11231 | -56.48661 | 39361 ft | 438 kts | 231° |
| 2026-04-20 15:25 | -33.13446 | -56.51180 | 38868 ft | 438 kts | 231° |
| 2026-04-20 15:25 | -33.15655 | -56.53693 | 38380 ft | 438 kts | 231° |
| 2026-04-20 15:25 | -33.17889 | -56.56239 | 37885 ft | 438 kts | 231° |
| 2026-04-20 15:26 | -33.20079 | -56.58732 | 37407 ft | 438 kts | 231° |
| 2026-04-20 15:26 | -33.22300 | -56.61263 | 36920 ft | 438 kts | 231° |
| 2026-04-20 15:26 | -33.24482 | -56.63752 | 36440 ft | 438 kts | 231° |
| 2026-04-20 15:26 | -33.26678 | -56.66258 | 35965 ft | 437 kts | 232° |
| 2026-04-20 15:27 | -33.28711 | -56.68580 | 35523 ft | 439 kts | 232° |
| 2026-04-20 15:27 | -33.30912 | -56.71095 | 35039 ft | 441 kts | 232° |
| 2026-04-20 15:27 | -33.33166 | -56.73673 | 34551 ft | 443 kts | 232° |
| 2026-04-20 15:27 | -33.35429 | -56.76263 | 34056 ft | 443 kts | 232° |
| 2026-04-20 15:28 | -33.37109 | -56.78188 | 33680 ft | 445 kts | 232° |
| 2026-04-20 15:28 | -33.39387 | -56.80799 | 33174 ft | 446 kts | 231° |
| 2026-04-20 15:28 | -33.41640 | -56.83384 | 32681 ft | 448 kts | 231° |
| 2026-04-20 15:28 | -33.43809 | -56.85873 | 32204 ft | 450 kts | 231° |
| 2026-04-20 15:29 | -33.46081 | -56.88483 | 31691 ft | 452 kts | 231° |
| 2026-04-20 15:29 | -33.48366 | -56.91110 | 31196 ft | 454 kts | 230° |
| 2026-04-20 15:29 | -33.50617 | -56.93693 | 30694 ft | 433 kts | 230° |
| 2026-04-20 15:29 | -33.52733 | -56.96127 | 30184 ft | 422 kts | 230° |
| 2026-04-20 15:30 | -33.54851 | -56.98573 | 29739 ft | 422 kts | 230° |
| 2026-04-20 15:30 | -33.56978 | -57.01025 | 29272 ft | 422 kts | 230° |
| 2026-04-20 15:30 | -33.59065 | -57.03433 | 28810 ft | 420 kts | 230° |
| 2026-04-20 15:30 | -33.61180 | -57.05875 | 28342 ft | 418 kts | 229° |
| 2026-04-20 15:31 | -33.63247 | -57.08264 | 27884 ft | 417 kts | 229° |
| 2026-04-20 15:31 | -33.65339 | -57.10681 | 27422 ft | 415 kts | 229° |
| 2026-04-20 15:31 | -33.67403 | -57.13070 | 26966 ft | 413 kts | 229° |
| 2026-04-20 15:31 | -33.69450 | -57.15439 | 26513 ft | 411 kts | 229° |
| 2026-04-20 15:32 | -33.71513 | -57.17830 | 26056 ft | 408 kts | 229° |
| 2026-04-20 15:32 | -33.73559 | -57.20202 | 25604 ft | 406 kts | 229° |
| 2026-04-20 15:32 | -33.75599 | -57.22569 | 25152 ft | 404 kts | 228° |
| 2026-04-20 15:32 | -33.77605 | -57.24897 | 24708 ft | 402 kts | 228° |
| 2026-04-20 15:33 | -33.79610 | -57.27227 | 24264 ft | 399 kts | 228° |
| 2026-04-20 15:33 | -33.81617 | -57.29560 | 23820 ft | 397 kts | 228° |
| 2026-04-20 15:33 | -33.83584 | -57.31848 | 23384 ft | 395 kts | 228° |
| 2026-04-20 15:33 | -33.85556 | -57.34145 | 22947 ft | 393 kts | 227° |
| 2026-04-20 15:34 | -33.87503 | -57.36413 | 22516 ft | 391 kts | 227° |
| 2026-04-20 15:34 | -33.89442 | -57.38674 | 22086 ft | 389 kts | 227° |
| 2026-04-20 15:34 | -33.91393 | -57.40949 | 21654 ft | 388 kts | 227° |
| 2026-04-20 15:34 | -33.93317 | -57.43195 | 21227 ft | 386 kts | 227° |
| 2026-04-20 15:35 | -33.95215 | -57.45412 | 20807 ft | 384 kts | 227° |
| 2026-04-20 15:35 | -33.97128 | -57.47648 | 20382 ft | 382 kts | 227° |
| 2026-04-20 15:35 | -33.99036 | -57.49879 | 19959 ft | 381 kts | 227° |
| 2026-04-20 15:35 | -34.00945 | -57.52113 | 19535 ft | 379 kts | 226° |
| 2026-04-20 15:36 | -34.02832 | -57.54323 | 19117 ft | 377 kts | 226° |
| 2026-04-20 15:36 | -34.04694 | -57.56504 | 18703 ft | 376 kts | 226° |
| 2026-04-20 15:36 | -34.06578 | -57.58714 | 18285 ft | 374 kts | 226° |
| 2026-04-20 15:36 | -34.08441 | -57.60899 | 17872 ft | 373 kts | 226° |
| 2026-04-20 15:37 | -34.10295 | -57.63076 | 17459 ft | 371 kts | 226° |
| 2026-04-20 15:37 | -34.12133 | -57.65235 | 17052 ft | 370 kts | 226° |
| 2026-04-20 15:37 | -34.13979 | -57.67405 | 16647 ft | 368 kts | 226° |
| 2026-04-20 15:37 | -34.15835 | -57.69588 | 16235 ft | 367 kts | 226° |
| 2026-04-20 15:38 | -34.17651 | -57.71726 | 15832 ft | 366 kts | 226° |
| 2026-04-20 15:38 | -34.19456 | -57.73853 | 15431 ft | 364 kts | 226° |
| 2026-04-20 15:38 | -34.21273 | -57.75993 | 15026 ft | 363 kts | 226° |
| 2026-04-20 15:38 | -34.23066 | -57.78108 | 14627 ft | 362 kts | 226° |
| 2026-04-20 15:39 | -34.24889 | -57.80259 | 14222 ft | 361 kts | 225° |
| 2026-04-20 15:39 | -34.26675 | -57.82368 | 13824 ft | 359 kts | 225° |
| 2026-04-20 15:39 | -34.28464 | -57.84483 | 13386 ft | 358 kts | 225° |
| 2026-04-20 15:39 | -34.30230 | -57.86570 | 12943 ft | 357 kts | 225° |
| 2026-04-20 15:40 | -34.32018 | -57.88685 | 12536 ft | 355 kts | 225° |
| 2026-04-20 15:40 | -34.33786 | -57.90778 | 12140 ft | 354 kts | 225° |
| 2026-04-20 15:40 | -34.35537 | -57.92852 | 11750 ft | 353 kts | 225° |
| 2026-04-20 15:40 | -34.37296 | -57.94936 | 11358 ft | 350 kts | 225° |
| 2026-04-20 15:41 | -34.39028 | -57.96990 | 10971 ft | 348 kts | 225° |
| 2026-04-20 15:41 | -34.40676 | -57.98949 | 10581 ft | 313 kts | 226° |
| 2026-04-20 15:41 | -34.41959 | -58.00905 | 10162 ft | 285 kts | 234° |
| 2026-04-20 15:41 | -34.43115 | -58.02874 | 9902 ft | 282 kts | 235° |
| 2026-04-20 15:42 | -34.44214 | -58.04818 | 9633 ft | 283 kts | 236° |
| 2026-04-20 15:42 | -34.45316 | -58.06803 | 9332 ft | 282 kts | 236° |
| 2026-04-20 15:42 | -34.46400 | -58.08764 | 9025 ft | 280 kts | 236° |
| 2026-04-20 15:42 | -34.47478 | -58.10723 | 8716 ft | 279 kts | 236° |
| 2026-04-20 15:43 | -34.48560 | -58.12693 | 8406 ft | 278 kts | 236° |
| 2026-04-20 15:43 | -34.49629 | -58.14641 | 8099 ft | 276 kts | 236° |
| 2026-04-20 15:43 | -34.50694 | -58.16584 | 7793 ft | 275 kts | 236° |
| 2026-04-20 15:43 | -34.51750 | -58.18508 | 7489 ft | 273 kts | 236° |
| 2026-04-20 15:44 | -34.52801 | -58.20428 | 7187 ft | 273 kts | 235° |
| 2026-04-20 15:44 | -34.53840 | -58.22323 | 6888 ft | 271 kts | 235° |
| 2026-04-20 15:44 | -34.54882 | -58.24228 | 6588 ft | 270 kts | 235° |
| 2026-04-20 15:44 | -34.55936 | -58.26154 | 6285 ft | 269 kts | 235° |
| 2026-04-20 15:45 | -34.56963 | -58.28032 | 5990 ft | 267 kts | 235° |
| 2026-04-20 15:45 | -34.57995 | -58.29921 | 5694 ft | 266 kts | 235° |
| 2026-04-20 15:45 | -34.59015 | -58.31789 | 5402 ft | 265 kts | 235° |
| 2026-04-20 15:45 | -34.60034 | -58.33655 | 5110 ft | 264 kts | 235° |
| 2026-04-20 15:46 | -34.61047 | -58.35513 | 4820 ft | 263 kts | 235° |
| 2026-04-20 15:46 | -34.62061 | -58.37372 | 4529 ft | 262 kts | 234° |
| 2026-04-20 15:46 | -34.63064 | -58.39212 | 4242 ft | 261 kts | 234° |
| 2026-04-20 15:46 | -34.64071 | -58.41061 | 3953 ft | 260 kts | 234° |
| 2026-04-20 15:47 | -34.65061 | -58.42879 | 3667 ft | 251 kts | 234° |
| 2026-04-20 15:47 | -34.65975 | -58.44563 | 3359 ft | 226 kts | 234° |
| 2026-04-20 15:47 | -34.66810 | -58.46100 | 3098 ft | 206 kts | 234° |
| 2026-04-20 15:47 | -34.67596 | -58.47544 | 2921 ft | 203 kts | 234° |
| 2026-04-20 15:48 | -34.68377 | -58.48978 | 2716 ft | 204 kts | 234° |
| 2026-04-20 15:48 | -34.69160 | -58.50418 | 2496 ft | 203 kts | 234° |
| 2026-04-20 15:48 | -34.69944 | -58.51861 | 2271 ft | 203 kts | 234° |
| 2026-04-20 15:48 | -34.70718 | -58.53288 | 2048 ft | 202 kts | 234° |
| 2026-04-20 15:49 | -34.71503 | -58.54734 | 1823 ft | 202 kts | 234° |
| 2026-04-20 15:49 | -34.72441 | -58.55823 | 1630 ft | 178 kts | 200° |
| 2026-04-20 15:49 | -34.73634 | -58.55875 | 1284 ft | 173 kts | 165° |
| 2026-04-20 15:49 | -34.74763 | -58.55396 | 1092 ft | 164 kts | 158° |
| 2026-04-20 15:50 | -34.75778 | -58.54941 | 880 ft | 152 kts | 165° |
| 2026-04-20 15:50 | -34.76780 | -58.54658 | 716 ft | 143 kts | 166° |
| 2026-04-20 15:50 | -34.77594 | -58.54417 | 657 ft | 113 kts | 165° |
| 2026-04-20 15:50 | -34.78343 | -58.54187 | 441 ft | 108 kts | 164° |
| 2026-04-20 15:51 | -34.79064 | -58.53974 | 355 ft | 108 kts | 165° |
| 2026-04-20 15:51 | -34.79796 | -58.53745 | 299 ft | 108 kts | 163° |
| 2026-04-20 15:51 | -34.80532 | -58.53501 | 191 ft | 109 kts | 163° |
| 2026-04-20 15:51 | -34.81254 | -58.53249 | 75 ft | 101 kts | 163° |
| 2026-04-20 15:52 | -34.81746 | -58.53073 | 72 ft | 40 kts | 163° |
| 2026-04-20 15:52 | -34.81889 | -58.53024 | 72 ft | 15 kts | 165° |
| 2026-04-20 15:52 | -34.81983 | -58.52993 | 72 ft | 12 kts | 167° |
| 2026-04-20 15:53 | -34.82000 | -58.53143 | 72 ft | 11 kts | 284° |
| 2026-04-20 15:53 | -34.81980 | -58.53244 | 72 ft | 13 kts | 283° |
| 2026-04-20 15:53 | -34.81959 | -58.53354 | 72 ft | 14 kts | 283° |
| 2026-04-20 15:53 | -34.81934 | -58.53477 | 72 ft | 15 kts | 283° |
| 2026-04-20 15:54 | -34.81905 | -58.53603 | 72 ft | 14 kts | 295° |
| 2026-04-20 15:54 | -34.81834 | -58.53670 | 72 ft | 12 kts | 334° |
| 2026-04-20 15:54 | -34.81760 | -58.53713 | 72 ft | 11 kts | 334° |
| 2026-04-20 15:54 | -34.81696 | -58.53753 | 72 ft | 9 kts | 330° |
| 2026-04-20 15:55 | -34.81634 | -58.53771 | 72 ft | 9 kts | 13° |
| 2026-04-20 15:55 | -34.81580 | -58.53716 | 72 ft | 10 kts | 42° |
| 2026-04-20 15:55 | -34.81519 | -58.53657 | 72 ft | 11 kts | 33° |
| 2026-04-20 15:55 | -34.81439 | -58.53617 | 72 ft | 13 kts | 15° |
| 2026-04-20 15:56 | -34.81346 | -58.53594 | 72 ft | 14 kts | 7° |
| 2026-04-20 15:56 | -34.81243 | -58.53590 | 72 ft | 15 kts | 358° |
| 2026-04-20 15:56 | -34.81144 | -58.53546 | 72 ft | 15 kts | 12° |
| 2026-04-20 15:56 | -34.81038 | -58.53575 | 72 ft | 16 kts | 342° |
| 2026-04-20 15:57 | -34.80925 | -58.53615 | 72 ft | 17 kts | 345° |
| 2026-04-20 15:57 | -34.80810 | -58.53654 | 72 ft | 16 kts | 343° |
| 2026-04-20 15:57 | -34.80701 | -58.53693 | 72 ft | 16 kts | 343° |
| 2026-04-20 15:57 | -34.80594 | -58.53731 | 72 ft | 15 kts | 345° |
| 2026-04-20 15:58 | -34.80488 | -58.53737 | 72 ft | 15 kts | 8° |
| 2026-04-20 15:58 | -34.80391 | -58.53699 | 72 ft | 14 kts | 25° |
| 2026-04-20 15:58 | -34.80316 | -58.53624 | 72 ft | 13 kts | 44° |
| 2026-04-20 15:58 | -34.80249 | -58.53542 | 72 ft | 13 kts | 45° |
| 2026-04-20 15:59 | -34.80188 | -58.53464 | 72 ft | 12 kts | 45° |
| 2026-04-20 15:59 | -34.80127 | -58.53391 | 72 ft | 11 kts | 45° |
| 2026-04-20 15:59 | -34.80069 | -58.53319 | 72 ft | 11 kts | 45° |
| 2026-04-20 15:59 | -34.80014 | -58.53251 | 72 ft | 11 kts | 45° |
| 2026-04-20 16:00 | -34.79962 | -58.53188 | 72 ft | 10 kts | 44° |
| 2026-04-20 16:00 | -34.79911 | -58.53128 | 72 ft | 10 kts | 44° |
| 2026-04-20 16:00 | -34.79864 | -58.53071 | 72 ft | 9 kts | 44° |
| 2026-04-20 16:00 | -34.79818 | -58.53015 | 72 ft | 9 kts | 45° |
| 2026-04-20 16:01 | -34.79775 | -58.52962 | 72 ft | 8 kts | 45° |
| 2026-04-20 16:01 | -34.79736 | -58.52913 | 72 ft | 7 kts | 45° |
| 2026-04-20 16:01 | -34.79703 | -58.52872 | 72 ft | 6 kts | 45° |
| 2026-04-20 16:01 | -34.79688 | -58.52836 | 72 ft | 4 kts | 103° |
| 2026-04-20 16:02 | -34.79692 | -58.52830 | 72 ft | 0 kts | 136° |